createdAt,value
2023-03-19T00:03:01.511Z,5.28
2023-03-19T00:08:17.160Z,5.72
2023-03-19T00:13:33.198Z,5.72
2023-03-19T00:18:49.542Z,6.00
2023-03-19T00:24:05.826Z,5.38
2023-03-19T00:29:21.842Z,5.55
2023-03-19T00:34:37.666Z,6.15
2023-03-19T00:39:53.586Z,5.50
2023-03-19T00:45:10.497Z,5.43
2023-03-19T00:50:27.462Z,5.70
2023-03-19T00:55:43.565Z,6.65
2023-03-19T01:00:59.130Z,5.45
2023-03-19T01:06:14.887Z,5.90
2023-03-19T01:11:31.150Z,5.10
2023-03-19T01:16:46.917Z,5.10
2023-03-19T01:22:04.742Z,5.90
2023-03-19T01:27:21.513Z,4.93
2023-03-19T01:32:37.678Z,5.40
2023-03-19T01:37:53.698Z,6.40
2023-03-19T01:43:24.836Z,5.38
2023-03-19T01:48:51.700Z,5.45
2023-03-19T01:54:15.895Z,5.80
2023-03-19T01:59:45.337Z,5.00
2023-03-19T02:05:25.993Z,5.07
2023-03-19T02:10:43.693Z,5.25
2023-03-19T02:15:59.743Z,5.32
2023-03-19T02:21:17.782Z,4.57
2023-03-19T02:26:36.097Z,4.57
2023-03-19T02:31:51.820Z,5.30
2023-03-19T02:37:15.393Z,6.22
2023-03-19T02:42:31.743Z,4.65
2023-03-19T02:47:48.002Z,5.95
2023-03-19T02:53:03.613Z,4.38
2023-03-19T02:58:19.761Z,4.22
2023-03-19T03:03:35.674Z,4.85
2023-03-19T03:08:52.958Z,4.95
2023-03-19T03:14:08.705Z,4.80
2023-03-19T03:19:24.809Z,5.07
2023-03-19T03:24:40.272Z,4.25
2023-03-19T03:29:56.720Z,5.18
2023-03-19T03:35:12.565Z,4.72
2023-03-19T03:40:28.347Z,5.22
2023-03-19T03:45:45.038Z,4.63
2023-03-19T03:51:01.117Z,4.65
2023-03-19T03:56:17.006Z,4.93
2023-03-19T04:01:32.932Z,5.72
2023-03-19T04:06:49.101Z,6.38
2023-03-19T04:12:05.985Z,5.75
2023-03-19T04:17:21.619Z,5.55
2023-03-19T04:22:37.999Z,6.53
2023-03-19T04:27:53.644Z,5.93
2023-03-19T04:33:11.056Z,7.63
2023-03-19T04:38:27.793Z,6.88
2023-03-19T04:43:43.512Z,5.57
2023-03-19T04:49:00.114Z,5.68
2023-03-19T04:54:16.131Z,4.95
2023-03-19T04:59:32.137Z,5.13
2023-03-19T05:04:48.011Z,5.97
2023-03-19T05:10:04.974Z,4.72
2023-03-19T05:15:20.815Z,5.38
2023-03-19T05:20:37.702Z,4.80
2023-03-19T05:25:53.358Z,5.18
2023-03-19T05:31:10.118Z,4.90
2023-03-19T05:36:26.111Z,5.22
2023-03-19T05:41:41.945Z,5.07
2023-03-19T05:46:57.906Z,5.82
2023-03-19T05:52:13.888Z,6.35
2023-03-19T05:57:29.900Z,5.85
2023-03-19T06:02:45.943Z,6.63
2023-03-19T06:08:01.755Z,17.20
2023-03-19T06:13:17.459Z,7.85
2023-03-19T06:18:33.675Z,5.90
2023-03-19T06:23:51.614Z,6.70
2023-03-19T06:29:07.875Z,6.68
2023-03-19T06:34:23.399Z,6.63
2023-03-19T06:39:39.542Z,5.80
2023-03-19T06:44:55.653Z,5.57
2023-03-19T06:50:12.749Z,6.35
2023-03-19T06:55:28.290Z,5.25
2023-03-19T07:00:44.763Z,6.03
2023-03-19T07:06:00.709Z,6.43
2023-03-19T07:11:16.756Z,5.90
2023-03-19T07:16:32.868Z,7.13
2023-03-19T07:21:48.448Z,6.97
2023-03-19T07:27:04.090Z,6.22
2023-03-19T07:32:20.039Z,5.35
2023-03-19T07:37:35.884Z,5.95
2023-03-19T07:42:51.659Z,4.70
2023-03-19T07:48:07.593Z,4.40
2023-03-19T07:53:23.686Z,4.47
2023-03-19T07:58:39.842Z,5.43
2023-03-19T08:03:55.786Z,5.05
2023-03-19T08:09:11.632Z,4.68
2023-03-19T08:14:27.477Z,4.82
2023-03-19T08:19:44.051Z,4.60
2023-03-19T08:24:59.686Z,4.25
2023-03-19T08:30:15.971Z,3.60
2023-03-19T08:35:31.820Z,3.20
2023-03-19T08:40:47.960Z,3.45
2023-03-19T08:46:05.535Z,3.25
2023-03-19T08:51:21.522Z,2.92
2023-03-19T08:56:38.775Z,3.40
2023-03-19T09:01:55.449Z,3.08
2023-03-19T09:07:13.514Z,3.50
2023-03-19T09:12:29.102Z,3.67
2023-03-19T09:17:45.861Z,3.38
2023-03-19T09:23:01.561Z,3.35
2023-03-19T09:28:17.525Z,3.63
2023-03-19T09:33:33.566Z,2.97
2023-03-19T09:38:49.259Z,3.38
2023-03-19T09:44:11.280Z,3.00
2023-03-19T09:49:30.207Z,3.35
2023-03-19T09:54:50.201Z,3.42
2023-03-19T10:00:39.757Z,4.37
2023-03-19T10:06:14.838Z,3.22
2023-03-19T10:11:46.735Z,3.20
2023-03-19T10:17:07.394Z,3.17
2023-03-19T10:22:30.486Z,3.42
2023-03-19T10:27:50.997Z,3.17
2023-03-19T10:33:24.947Z,3.20
2023-03-19T10:38:43.804Z,3.03
2023-03-19T10:44:04.062Z,2.83
2023-03-19T10:49:19.810Z,2.95
2023-03-19T10:54:40.811Z,2.70
2023-03-19T10:59:56.446Z,3.03
2023-03-19T11:05:16.151Z,2.95
2023-03-19T11:10:35.576Z,3.00
2023-03-19T11:15:53.737Z,3.25
2023-03-19T11:21:22.145Z,3.20
2023-03-19T11:26:38.686Z,4.03
2023-03-19T11:32:08.652Z,3.05
2023-03-19T11:37:40.745Z,3.20
2023-03-19T11:43:07.360Z,2.72
2023-03-19T11:48:35.312Z,2.63
2023-03-19T11:53:57.178Z,2.60
2023-03-19T11:59:34.967Z,2.45
2023-03-19T12:04:53.772Z,1.65
2023-03-19T12:10:43.010Z,2.10
2023-03-19T12:16:28.983Z,1.70
2023-03-19T12:21:58.661Z,1.73
2023-03-19T12:27:25.962Z,2.17
2023-03-19T12:33:11.305Z,1.83
2023-03-19T12:38:37.130Z,1.88
2023-03-19T12:44:02.513Z,1.38
2023-03-19T12:49:44.740Z,1.08
2023-03-19T12:55:13.543Z,1.42
2023-03-19T13:00:47.961Z,2.03
2023-03-19T13:06:13.629Z,1.42
2023-03-19T13:11:37.201Z,1.20
2023-03-19T13:16:55.560Z,1.50
2023-03-19T13:22:20.145Z,1.40
2023-03-19T13:27:36.706Z,1.35
2023-03-19T13:33:04.489Z,1.20
2023-03-19T13:38:30.788Z,1.70
2023-03-19T13:43:56.117Z,1.50
2023-03-19T13:49:25.590Z,1.45
2023-03-19T13:54:46.071Z,1.35
2023-03-19T14:00:45.433Z,1.45
2023-03-19T14:06:02.157Z,1.38
2023-03-19T14:11:25.393Z,2.08
2023-03-19T14:16:46.935Z,1.33
2023-03-19T14:22:16.406Z,1.38
2023-03-19T14:27:36.613Z,1.67
2023-03-19T14:32:53.580Z,1.42
2023-03-19T14:38:21.963Z,1.63
2023-03-19T14:44:05.202Z,1.80
2023-03-19T14:49:59.868Z,1.75
2023-03-19T14:55:18.041Z,1.98
2023-03-19T15:01:06.681Z,1.95
2023-03-19T15:06:23.830Z,2.42
2023-03-19T15:12:04.503Z,2.60
2023-03-19T15:17:30.071Z,1.58
2023-03-19T15:22:59.396Z,2.20
2023-03-19T15:28:17.430Z,2.47
2023-03-19T15:33:41.494Z,1.67
2023-03-19T15:39:10.533Z,1.38
2023-03-19T15:44:43.061Z,1.40
2023-03-19T15:49:58.939Z,1.58
2023-03-19T15:55:15.888Z,1.38
2023-03-19T16:00:31.874Z,1.75
2023-03-19T16:06:07.676Z,1.73
2023-03-19T16:11:41.486Z,1.17
2023-03-19T16:17:18.013Z,1.70
2023-03-19T16:22:33.941Z,1.98
2023-03-19T16:27:51.625Z,2.45
2023-03-19T16:33:13.108Z,1.50
2023-03-19T16:38:44.286Z,1.73
2023-03-19T16:44:16.573Z,1.67
2023-03-19T16:49:32.612Z,1.73
2023-03-19T16:54:49.470Z,1.45
2023-03-19T17:00:05.723Z,1.73
2023-03-19T17:05:21.947Z,1.75
2023-03-19T17:10:41.504Z,1.95
2023-03-19T17:16:02.536Z,1.70
2023-03-19T17:21:22.010Z,1.60
2023-03-19T17:26:37.850Z,1.63
2023-03-19T17:31:55.481Z,2.22
2023-03-19T17:37:14.531Z,1.60
2023-03-19T17:42:32.554Z,1.42
2023-03-19T17:47:51.063Z,2.45
2023-03-19T17:53:09.797Z,1.65
2023-03-19T17:58:25.812Z,2.00
2023-03-19T18:03:41.629Z,2.72
2023-03-19T18:08:57.558Z,2.20
2023-03-19T18:14:13.790Z,2.42
2023-03-19T18:19:35.459Z,2.38
2023-03-19T18:24:51.440Z,2.35
2023-03-19T18:30:08.371Z,2.78
2023-03-19T18:35:34.742Z,2.13
2023-03-19T18:40:51.300Z,2.78
2023-03-19T18:46:12.868Z,2.22
2023-03-19T18:51:29.542Z,2.33
2023-03-19T18:56:47.528Z,2.70
2023-03-19T19:02:19.775Z,2.88
2023-03-19T19:07:35.988Z,3.50
2023-03-19T19:12:54.472Z,2.97
2023-03-19T19:18:30.708Z,2.70
2023-03-19T19:23:46.365Z,2.75
2023-03-19T19:29:02.356Z,3.17
2023-03-19T19:34:18.548Z,2.88
2023-03-19T19:39:34.218Z,2.58
2023-03-19T19:45:00.724Z,3.13
2023-03-19T19:50:23.456Z,2.88
2023-03-19T19:55:39.965Z,2.58
2023-03-19T20:01:03.361Z,2.92
2023-03-19T20:06:20.696Z,3.53
2023-03-19T20:11:36.577Z,3.25
2023-03-19T20:16:52.395Z,3.25
2023-03-19T20:22:08.280Z,3.30
2023-03-19T20:27:32.612Z,3.75
2023-03-19T20:32:48.949Z,3.40
2023-03-19T20:38:06.983Z,2.92
2023-03-19T20:43:35.883Z,2.92
2023-03-19T20:48:51.926Z,3.22
2023-03-19T20:54:08.049Z,3.67
2023-03-19T20:59:26.647Z,4.03
2023-03-19T21:04:42.802Z,4.43
2023-03-19T21:09:59.547Z,4.72
2023-03-19T21:15:15.545Z,5.18
2023-03-19T21:20:32.983Z,4.22
2023-03-19T21:25:49.717Z,5.53
2023-03-19T21:31:06.892Z,5.40
2023-03-19T21:36:22.986Z,5.78
2023-03-19T21:41:39.072Z,6.15
2023-03-19T21:46:55.014Z,8.07
2023-03-19T21:52:23.683Z,5.95
2023-03-19T21:57:39.398Z,6.35
2023-03-19T22:02:55.282Z,6.88
2023-03-19T22:08:11.162Z,6.22
2023-03-19T22:13:30.152Z,5.55
2023-03-19T22:18:47.250Z,6.03
2023-03-19T22:24:03.579Z,5.88
2023-03-19T22:29:23.770Z,6.50
2023-03-19T22:34:39.399Z,6.30
2023-03-19T22:39:56.426Z,7.18
2023-03-19T22:45:24.260Z,7.00
2023-03-19T22:50:39.874Z,6.32
2023-03-19T22:55:56.987Z,6.55
2023-03-19T23:01:22.628Z,6.10
2023-03-19T23:06:38.415Z,6.43
2023-03-19T23:11:54.720Z,4.78
2023-03-19T23:17:19.900Z,5.85
2023-03-19T23:22:36.133Z,5.55
2023-03-19T23:27:53.310Z,5.55
2023-03-19T23:33:11.185Z,4.80
2023-03-19T23:38:27.667Z,5.28
2023-03-19T23:43:43.542Z,4.45
2023-03-19T23:48:59.396Z,5.10
2023-03-19T23:54:34.619Z,4.85
2023-03-19T23:59:52.428Z,5.03
